Time;durP1;ratioP1;P1;durP2;ratioP2;P2;SDS_P1;SDS_P2;PMS_P1;PMS_P2;Temp;Humidity;BMP_temperature;BMP_pressure;BME280_temperature;BME280_humidity;BME280_pressure;Samples;Min_cycle;Max_cycle;Signal;HPM_P1;HPM_P2
2023/04/07 00:01:06;;;;;;;26.07;12.20;;;;;8.20;100991.00;;;;10344274;28;20910;-77
2023/04/07 00:06:09;;;;;;;19.00;12.87;;;;;8.10;100997.00;;;;10395056;28;20195;-76
2023/04/07 00:11:11;;;;;;;18.93;12.97;;;;;8.10;100998.00;;;;10376995;28;20229;-77
2023/04/07 00:16:13;;;;;;;23.70;12.73;;;;;8.10;100990.00;;;;10374757;28;20444;-77
2023/04/07 00:21:14;;;;;;;23.13;14.10;;;;;8.10;100995.00;;;;10388026;28;20214;-77
2023/04/07 00:26:16;;;;;;;24.67;14.13;;;;;8.10;100996.00;;;;10373496;28;20218;-77
2023/04/07 00:31:19;;;;;;;24.33;14.03;;;;;8.10;100997.00;;;;10374058;28;20223;-77
2023/04/07 00:36:21;;;;;;;22.80;14.17;;;;;8.00;100999.00;;;;10340879;28;20685;-77
2023/04/07 00:41:23;;;;;;;30.07;15.20;;;;;8.00;101003.00;;;;10374624;28;20238;-77
2023/04/07 00:46:25;;;;;;;21.70;13.87;;;;;8.00;101012.00;;;;10357844;28;20209;-77
2023/04/07 00:51:27;;;;;;;27.80;15.47;;;;;8.00;101007.00;;;;10388964;28;20802;-77
2023/04/07 00:56:29;;;;;;;30.13;15.33;;;;;8.00;100999.00;;;;10373640;28;20194;-77
2023/04/07 01:01:44;;;;;;;29.77;15.10;;;;;8.00;101009.00;;;;10373247;28;20245;-77
2023/04/07 01:06:50;;;;;;;27.73;16.00;;;;;7.90;100992.00;;;;10315434;28;20289;-77
2023/04/07 01:12:02;;;;;;;27.30;15.80;;;;;7.80;100997.00;;;;10348687;28;20235;-77
2023/04/07 01:17:08;;;;;;;21.70;14.87;;;;;7.70;100997.00;;;;10387879;28;20195;-77
2023/04/07 01:22:16;;;;;;;29.10;16.47;;;;;7.60;101003.00;;;;10353348;28;20195;-77
2023/04/07 01:27:51;;;;;;;27.20;16.10;;;;;7.50;101001.00;;;;10352552;28;20211;-77
2023/04/07 01:32:55;;;;;;;28.77;16.23;;;;;7.40;101001.00;;;;10325137;28;20203;-77
2023/04/07 01:37:59;;;;;;;28.30;14.53;;;;;7.30;101002.00;;;;10353862;28;20231;-77
2023/04/07 01:43:01;;;;;;;25.63;15.33;;;;;7.30;101003.00;;;;10386013;28;20191;-76
2023/04/07 01:48:06;;;;;;;34.60;14.53;;;;;7.30;101003.00;;;;10346604;28;20222;-77
2023/04/07 01:53:09;;;;;;;31.87;16.40;;;;;7.30;101002.00;;;;10350767;28;20213;-77
2023/04/07 01:58:12;;;;;;;34.30;16.87;;;;;7.30;101001.00;;;;10385018;28;20203;-77
2023/04/07 02:03:21;;;;;;;32.83;15.57;;;;;7.30;100998.00;;;;10383171;28;20207;-77
2023/04/07 02:08:27;;;;;;;28.27;16.13;;;;;7.30;101012.00;;;;10386229;28;20214;-77
2023/04/07 02:13:34;;;;;;;30.70;17.17;;;;;7.30;101001.00;;;;10361839;28;20234;-77
2023/04/07 02:18:36;;;;;;;35.27;17.40;;;;;7.40;101009.00;;;;10329490;28;20191;-77
2023/04/07 02:23:39;;;;;;;39.30;19.10;;;;;7.40;101008.00;;;;10316708;28;20694;-77
2023/04/07 02:28:41;;;;;;;42.87;21.03;;;;;7.40;101020.00;;;;10349162;28;20437;-77
2023/04/07 02:33:44;;;;;;;36.67;21.17;;;;;7.40;101011.00;;;;10353023;28;20577;-77
2023/04/07 02:38:46;;;;;;;41.53;21.33;;;;;7.40;101014.00;;;;10369665;28;20199;-77
2023/04/07 02:43:48;;;;;;;41.10;20.83;;;;;7.40;101022.00;;;;10398098;28;20256;-77
2023/04/07 02:48:51;;;;;;;40.87;22.87;;;;;7.40;101021.00;;;;10358296;28;20214;-77
2023/04/07 02:53:53;;;;;;;43.93;22.10;;;;;7.40;101018.00;;;;10354979;28;20187;-77
2023/04/07 02:58:55;;;;;;;45.53;22.97;;;;;7.40;101036.00;;;;10351852;28;20207;-77
2023/04/07 03:03:57;;;;;;;43.10;21.67;;;;;7.40;101029.00;;;;10385823;28;20672;-77
2023/04/07 03:09:00;;;;;;;45.93;22.40;;;;;7.30;101034.00;;;;10351451;28;20210;-77
2023/04/07 03:14:03;;;;;;;45.10;23.10;;;;;7.30;101043.00;;;;10398472;28;20217;-77
2023/04/07 03:19:06;;;;;;;41.23;21.10;;;;;7.30;101039.00;;;;10335791;28;20203;-77
2023/04/07 03:24:11;;;;;;;47.80;23.43;;;;;7.30;101052.00;;;;10359022;28;20911;-76
2023/04/07 03:29:13;;;;;;;45.80;22.43;;;;;7.30;101048.00;;;;10368652;28;20272;-77
2023/04/07 03:34:18;;;;;;;41.93;23.33;;;;;7.30;101050.00;;;;10350566;28;20203;-77
2023/04/07 03:39:20;;;;;;;45.67;23.13;;;;;7.30;101058.00;;;;10350317;28;20203;-76
2023/04/07 03:44:23;;;;;;;42.47;23.90;;;;;7.20;101048.00;;;;10360992;28;20213;-77
2023/04/07 03:49:25;;;;;;;40.10;23.90;;;;;7.20;101050.00;;;;10358898;28;20218;-77
2023/04/07 03:54:29;;;;;;;44.97;23.97;;;;;7.20;101057.00;;;;10342431;28;20242;-76
2023/04/07 03:59:31;;;;;;;41.47;23.70;;;;;7.20;101063.00;;;;10360148;28;20245;-77
2023/04/07 04:04:37;;;;;;;49.63;24.13;;;;;7.20;101065.00;;;;10359758;28;20210;-76
2023/04/07 04:09:41;;;;;;;47.73;24.20;;;;;7.20;101070.00;;;;10351173;28;20211;-76
2023/04/07 04:14:44;;;;;;;46.23;23.90;;;;;7.10;101067.00;;;;10371815;28;20267;-77
2023/04/07 04:19:48;;;;;;;42.90;21.90;;;;;7.10;101069.00;;;;10371550;28;20203;-76
2023/04/07 04:25:16;;;;;;;54.50;22.30;;;;;7.10;101077.00;;;;10361949;28;20313;-77
2023/04/07 04:30:22;;;;;;;48.13;24.77;;;;;7.00;101071.00;;;;10374551;28;20214;-77
2023/04/07 04:35:28;;;;;;;47.20;23.20;;;;;6.90;101074.00;;;;10332877;28;20206;-76
2023/04/07 04:40:46;;;;;;;41.17;22.47;;;;;6.90;101077.00;;;;10374261;28;20211;-76
2023/04/07 04:45:51;;;;;;;43.90;21.57;;;;;6.80;101076.00;;;;10417903;28;20688;-77
2023/04/07 04:50:57;;;;;;;45.00;21.47;;;;;6.80;101079.00;;;;10361886;28;20218;-76
2023/04/07 04:56:00;;;;;;;38.77;21.80;;;;;6.60;101079.00;;;;10389263;28;20207;-76
2023/04/07 05:01:28;;;;;;;40.50;22.07;;;;;6.50;101080.00;;;;10402290;28;20206;-76
2023/04/07 05:06:46;;;;;;;42.83;21.97;;;;;6.40;101073.00;;;;10389345;28;20260;-76
2023/04/07 05:11:51;;;;;;;53.00;24.10;;;;;6.60;101077.00;;;;10341162;28;20466;-76
2023/04/07 05:16:54;;;;;;;48.97;23.57;;;;;6.60;101074.00;;;;10368088;28;20199;-76
2023/04/07 05:22:01;;;;;;;45.40;22.97;;;;;6.60;101087.00;;;;10357849;28;20934;-77
2023/04/07 05:27:07;;;;;;;48.70;24.40;;;;;6.60;101088.00;;;;10354729;28;20495;-77
2023/04/07 05:32:10;;;;;;;50.73;24.47;;;;;6.70;101086.00;;;;10356123;28;20687;-77
2023/04/07 05:37:12;;;;;;;53.00;24.23;;;;;6.70;101090.00;;;;10370136;28;20213;-76
2023/04/07 05:42:14;;;;;;;50.43;24.40;;;;;6.90;101092.00;;;;10340455;28;20312;-77
2023/04/07 05:47:19;;;;;;;51.63;25.10;;;;;7.10;101087.00;;;;10354468;28;20289;-77
2023/04/07 05:52:24;;;;;;;50.83;25.37;;;;;7.30;101083.00;;;;10352200;28;20229;-76
2023/04/07 05:57:35;;;;;;;57.27;27.03;;;;;7.60;101085.00;;;;10369153;28;20645;-77
2023/04/07 06:02:39;;;;;;;56.87;25.43;;;;;7.70;101089.00;;;;10328190;28;20212;-77
2023/04/07 06:07:46;;;;;;;60.13;25.50;;;;;7.90;101091.00;;;;10356398;28;20256;-77
2023/04/07 06:12:48;;;;;;;51.80;25.30;;;;;8.00;101090.00;;;;10332809;28;20218;-77
2023/04/07 06:17:50;;;;;;;47.60;22.77;;;;;8.10;101099.00;;;;10385956;28;20199;-76
2023/04/07 06:22:53;;;;;;;51.07;24.00;;;;;8.10;101102.00;;;;10368705;28;20222;-77
2023/04/07 06:27:55;;;;;;;47.93;23.17;;;;;8.20;101109.00;;;;10369728;28;20211;-77
2023/04/07 06:32:58;;;;;;;44.00;23.43;;;;;8.20;101107.00;;;;10352108;28;20289;-77
2023/04/07 06:38:01;;;;;;;45.30;21.53;;;;;8.40;101118.00;;;;10383903;28;20190;-77
2023/04/07 06:43:03;;;;;;;47.60;22.30;;;;;8.50;101127.00;;;;10383544;28;20203;-78
2023/04/07 06:48:14;;;;;;;37.23;20.63;;;;;8.60;101129.00;;;;10381452;28;20218;-77
2023/04/07 06:53:16;;;;;;;46.13;21.67;;;;;8.40;101125.00;;;;10374573;28;20199;-77
2023/04/07 06:58:18;;;;;;;43.97;21.13;;;;;9.00;101142.00;;;;10357477;28;20203;-78
2023/04/07 07:03:20;;;;;;;34.13;18.67;;;;;9.40;101137.00;;;;10342097;28;20617;-78
2023/04/07 07:08:23;;;;;;;27.53;15.87;;;;;9.80;101148.00;;;;10357306;28;20273;-77
2023/04/07 07:13:25;;;;;;;27.63;14.63;;;;;10.10;101155.00;;;;10342225;28;20205;-77
2023/04/07 07:18:27;;;;;;;21.47;12.77;;;;;10.20;101157.00;;;;10333767;28;20215;-78
2023/04/07 07:23:33;;;;;;;18.97;11.53;;;;;10.50;101159.00;;;;10385294;28;20222;-78
2023/04/07 07:28:35;;;;;;;17.80;10.93;;;;;10.70;101166.00;;;;10405015;28;20314;-77
2023/04/07 07:33:39;;;;;;;17.50;9.97;;;;;10.80;101170.00;;;;10366035;28;20198;-77
2023/04/07 07:38:41;;;;;;;17.27;11.03;;;;;10.40;101186.00;;;;10357133;28;20218;-77
2023/04/07 07:43:44;;;;;;;17.03;10.07;;;;;10.40;101189.00;;;;10350820;28;20199;-77
2023/04/07 07:48:46;;;;;;;18.47;11.87;;;;;10.20;101200.00;;;;10397279;28;20223;-77
2023/04/07 07:53:48;;;;;;;20.53;11.87;;;;;10.40;101205.00;;;;10373172;28;20197;-77
2023/04/07 07:58:50;;;;;;;22.33;12.37;;;;;10.70;101226.00;;;;10336054;28;20321;-77
2023/04/07 08:03:52;;;;;;;17.80;12.10;;;;;10.40;101228.00;;;;10370737;28;20206;-77
2023/04/07 08:08:56;;;;;;;24.03;12.03;;;;;10.60;101221.00;;;;10346568;28;20894;-77
2023/04/07 08:13:58;;;;;;;11.77;9.13;;;;;10.40;101229.00;;;;10369141;28;20937;-77
2023/04/07 08:19:00;;;;;;;10.47;8.13;;;;;10.40;101240.00;;;;10354223;28;20218;-77
2023/04/07 08:24:03;;;;;;;13.20;8.03;;;;;10.20;101242.00;;;;10368438;28;20234;-77
2023/04/07 08:29:05;;;;;;;13.87;6.87;;;;;10.70;101243.00;;;;10372097;28;20209;-77
2023/04/07 08:34:07;;;;;;;11.23;6.27;;;;;11.00;101257.00;;;;10346347;28;20213;-78
2023/04/07 08:39:09;;;;;;;7.70;4.90;;;;;11.50;101258.00;;;;10384663;28;20199;-78
2023/04/07 08:44:12;;;;;;;11.13;5.90;;;;;11.30;101260.00;;;;10347715;28;20198;-77
2023/04/07 08:49:16;;;;;;;8.03;4.90;;;;;11.60;101258.00;;;;10377362;28;20234;-78
2023/04/07 08:54:21;;;;;;;13.50;5.97;;;;;12.20;101266.00;;;;10381648;28;20222;-78
2023/04/07 08:59:27;;;;;;;10.40;5.20;;;;;11.90;101262.00;;;;10365490;28;20199;-78
2023/04/07 09:04:29;;;;;;;8.27;4.90;;;;;12.00;101267.00;;;;10367353;28;20184;-78
2023/04/07 09:09:31;;;;;;;9.37;5.00;;;;;11.60;101279.00;;;;10356936;28;20313;-78
2023/04/07 09:14:33;;;;;;;7.83;5.23;;;;;11.50;101261.00;;;;10361469;28;20290;-77
2023/04/07 09:19:35;;;;;;;9.07;3.80;;;;;11.70;101268.00;;;;10381814;28;20209;-78
2023/04/07 09:24:37;;;;;;;7.33;3.50;;;;;12.40;101260.00;;;;10376311;28;20203;-77
2023/04/07 09:29:41;;;;;;;7.27;3.53;;;;;12.80;101281.00;;;;10329160;28;20214;-78
2023/04/07 09:34:43;;;;;;;6.63;3.87;;;;;12.10;101278.00;;;;10360821;28;20199;-78
2023/04/07 09:39:50;;;;;;;5.67;3.97;;;;;13.00;101259.00;;;;10363754;28;20855;-78
2023/04/07 09:44:52;;;;;;;6.83;3.00;;;;;14.40;101261.00;;;;10362636;28;20218;-78
2023/04/07 09:49:55;;;;;;;7.77;2.70;;;;;14.00;101265.00;;;;10369542;28;20203;-77
2023/04/07 09:54:57;;;;;;;4.43;2.87;;;;;14.40;101274.00;;;;10377976;28;20199;-77
2023/04/07 10:00:00;;;;;;;4.17;2.93;;;;;15.30;101262.00;;;;10394166;28;20191;-77
2023/04/07 10:05:02;;;;;;;6.70;2.20;;;;;14.80;101274.00;;;;10364946;28;20191;-77
2023/04/07 10:10:06;;;;;;;4.97;2.40;;;;;15.30;101269.00;;;;10374553;28;20211;-78
2023/04/07 10:15:15;;;;;;;2.27;1.57;;;;;13.90;101275.00;;;;10356974;28;20223;-77
2023/04/07 10:20:19;;;;;;;5.33;2.17;;;;;13.70;101277.00;;;;10382489;28;20210;-78
2023/04/07 10:25:24;;;;;;;4.87;1.70;;;;;14.00;101283.00;;;;10399563;28;20318;-77
2023/04/07 10:30:32;;;;;;;2.07;1.60;;;;;13.80;101283.00;;;;10353733;28;20304;-77
2023/04/07 10:36:02;;;;;;;4.90;2.00;;;;;13.10;101290.00;;;;10347861;28;20195;-77
2023/04/07 10:41:35;;;;;;;7.40;2.50;;;;;13.60;101288.00;;;;10348872;28;20293;-77
2023/04/07 10:46:47;;;;;;;5.27;1.70;;;;;13.90;101297.00;;;;10348326;28;20237;-77
2023/04/07 10:52:11;;;;;;;3.37;1.90;;;;;13.60;101296.00;;;;10376258;28;20211;-77
2023/04/07 10:57:14;;;;;;;5.00;1.87;;;;;13.70;101299.00;;;;10376945;28;20256;-77
2023/04/07 11:02:22;;;;;;;5.20;1.80;;;;;13.60;101288.00;;;;10358718;28;20206;-77
2023/04/07 11:07:43;;;;;;;6.97;2.10;;;;;13.80;101300.00;;;;10374008;28;20292;-77
2023/04/07 11:12:58;;;;;;;7.13;1.83;;;;;14.00;101294.00;;;;10375844;28;20272;-78
2023/04/07 11:18:17;;;;;;;5.80;2.37;;;;;13.30;101303.00;;;;10395279;28;20190;-78
2023/04/07 11:23:22;;;;;;;7.03;2.10;;;;;13.00;101314.00;;;;10370429;28;20210;-77
2023/04/07 11:28:25;;;;;;;5.57;2.00;;;;;13.10;101310.00;;;;10364522;28;20194;-77
2023/04/07 11:33:30;;;;;;;7.57;2.03;;;;;13.40;101305.00;;;;10345693;28;20222;-78
2023/04/07 11:38:37;;;;;;;5.77;2.13;;;;;13.50;101303.00;;;;10343894;28;20195;-77
2023/04/07 11:43:41;;;;;;;7.43;2.20;;;;;14.10;101315.00;;;;10376042;28;20198;-77
2023/04/07 11:48:46;;;;;;;6.07;2.00;;;;;14.50;101315.00;;;;10368318;28;20195;-77
2023/04/07 11:53:54;;;;;;;4.67;1.93;;;;;14.60;101316.00;;;;10339711;28;20187;-77
2023/04/07 11:58:57;;;;;;;7.07;1.70;;;;;14.90;101316.00;;;;10380785;28;20199;-77
2023/04/07 12:04:03;;;;;;;7.03;2.00;;;;;14.70;101316.00;;;;10371688;28;20309;-78
2023/04/07 12:09:07;;;;;;;4.13;2.20;;;;;14.60;101308.00;;;;10397259;28;20418;-78
2023/04/07 12:14:09;;;;;;;5.80;1.87;;;;;14.50;101325.00;;;;10358343;28;20539;-78
2023/04/07 12:19:11;;;;;;;5.60;2.60;;;;;14.80;101319.00;;;;10364023;28;20221;-79
2023/04/07 12:24:13;;;;;;;2.80;1.87;;;;;15.20;101332.00;;;;10350060;28;20594;-78
2023/04/07 12:29:18;;;;;;;10.20;2.40;;;;;15.20;101341.00;;;;10375562;28;20207;-77
2023/04/07 12:34:20;;;;;;;6.43;2.13;;;;;16.10;101342.00;;;;10365612;28;20271;-78
2023/04/07 12:39:22;;;;;;;7.47;2.17;;;;;16.00;101341.00;;;;10371450;28;20198;-77
2023/04/07 12:44:24;;;;;;;4.43;1.73;;;;;16.80;101336.00;;;;10351299;28;20261;-77
2023/04/07 12:49:26;;;;;;;3.33;1.70;;;;;16.30;101328.00;;;;10376281;28;20214;-76
2023/04/07 12:54:29;;;;;;;7.38;2.47;;;;;16.70;101338.00;;;;10323681;28;20195;-77
2023/04/07 12:59:31;;;;;;;3.47;1.88;;;;;17.60;101343.00;;;;10368995;28;20210;-76
2023/04/07 13:04:33;;;;;;;6.25;1.80;;;;;16.10;101356.00;;;;10361009;28;20286;-77
2023/04/07 13:09:36;;;;;;;5.18;1.50;;;;;13.60;101359.00;;;;10385554;28;20429;-76
2023/04/07 13:14:40;;;;;;;2.20;1.60;;;;;12.30;101357.00;;;;10350476;28;20207;-76
2023/04/07 13:19:55;;;;;;;9.13;2.03;;;;;12.20;101363.00;;;;10378019;28;20772;-75
2023/04/07 13:24:58;;;;;;;10.10;2.30;;;;;12.40;101366.00;;;;10367844;28;20203;-76
2023/04/07 13:30:03;;;;;;;5.37;1.63;;;;;12.70;101365.00;;;;10345864;28;20608;-76
2023/04/07 13:35:05;;;;;;;4.27;1.87;;;;;12.70;101378.00;;;;10382160;28;20210;-77
2023/04/07 13:40:07;;;;;;;6.37;1.70;;;;;12.70;101370.00;;;;10379531;28;21529;-76
2023/04/07 13:45:10;;;;;;;7.97;1.97;;;;;13.00;101369.00;;;;10382022;28;20749;-76
2023/04/07 13:50:12;;;;;;;3.60;1.73;;;;;13.80;101368.00;;;;10391009;28;20779;-76
2023/04/07 13:55:14;;;;;;;2.20;1.50;;;;;14.50;101370.00;;;;10376133;28;20202;-76
2023/04/07 14:00:17;;;;;;;2.30;0.93;;;;;14.70;101372.00;;;;10359315;28;20558;-76
2023/04/07 14:05:19;;;;;;;4.80;1.90;;;;;14.40;101376.00;;;;10373824;28;20203;-76
2023/04/07 14:10:21;;;;;;;3.33;1.70;;;;;13.70;101376.00;;;;10350938;28;20322;-76
2023/04/07 14:15:23;;;;;;;5.63;1.97;;;;;12.70;101382.00;;;;10376404;28;20231;-76
2023/04/07 14:20:25;;;;;;;2.20;0.97;;;;;11.80;101384.00;;;;10397809;28;20229;-76
2023/04/07 14:25:28;;;;;;;4.17;1.20;;;;;11.50;101382.00;;;;10354336;28;20226;-78
2023/04/07 14:30:30;;;;;;;2.67;1.27;;;;;11.80;101389.00;;;;10364184;28;20226;-76
2023/04/07 14:35:35;;;;;;;3.93;1.40;;;;;12.40;101388.00;;;;10381148;28;20214;-78
2023/04/07 14:40:37;;;;;;;4.77;1.30;;;;;13.00;101394.00;;;;10385106;28;20253;-78
2023/04/07 14:45:39;;;;;;;2.07;0.90;;;;;18.80;101343.00;;;;10370567;28;20205;-78
2023/04/07 14:50:41;;;;;;;4.97;1.20;;;;;20.00;101357.00;;;;10369222;28;20269;-78
2023/04/07 14:55:43;;;;;;;2.07;0.90;;;;;20.00;101386.00;;;;10396534;28;20222;-78
2023/04/07 15:00:45;;;;;;;4.50;1.35;;;;;19.40;101378.00;;;;10362873;28;20202;-78
2023/04/07 15:05:47;;;;;;;2.17;1.50;;;;;17.30;101385.00;;;;10366421;28;20201;-77
2023/04/07 15:10:49;;;;;;;3.40;1.55;;;;;16.90;101396.00;;;;10354591;28;20366;-78
2023/04/07 15:15:51;;;;;;;3.03;1.23;;;;;14.60;101405.00;;;;10339347;28;20257;-77
2023/04/07 15:20:53;;;;;;;5.57;2.13;;;;;15.10;101390.00;;;;10377720;28;20214;-78
2023/04/07 15:25:56;;;;;;;4.83;1.70;;;;;13.50;101402.00;;;;10362538;28;20286;-78
2023/04/07 15:30:59;;;;;;;5.13;1.60;;;;;12.40;101414.00;;;;10385918;28;20217;-78
2023/04/07 15:36:03;;;;;;;6.03;1.70;;;;;12.00;101418.00;;;;10351871;28;20213;-78
2023/04/07 15:41:05;;;;;;;4.67;1.50;;;;;11.90;101413.00;;;;10347315;28;20195;-77
2023/04/07 15:46:07;;;;;;;3.40;1.50;;;;;11.80;101407.00;;;;10352800;28;20226;-78
2023/04/07 15:51:09;;;;;;;4.57;1.33;;;;;12.70;101427.00;;;;10384344;28;20225;-78
2023/04/07 15:56:11;;;;;;;3.50;1.60;;;;;13.50;101431.00;;;;10382975;28;20297;-78
2023/04/07 16:01:14;;;;;;;6.07;2.20;;;;;12.50;101428.00;;;;10378614;28;20574;-78
2023/04/07 16:06:16;;;;;;;3.53;1.87;;;;;12.60;101434.00;;;;10399264;28;20191;-78
2023/04/07 16:11:18;;;;;;;4.27;1.97;;;;;12.50;101434.00;;;;10365349;28;20226;-78
2023/04/07 16:16:20;;;;;;;7.23;2.03;;;;;12.20;101437.00;;;;10386145;28;20203;-78
2023/04/07 16:21:22;;;;;;;7.60;1.97;;;;;12.20;101433.00;;;;10403270;28;20207;-78
2023/04/07 16:26:25;;;;;;;6.90;1.97;;;;;12.00;101441.00;;;;10350855;28;20963;-77
2023/04/07 16:31:27;;;;;;;9.13;2.00;;;;;11.70;101454.00;;;;10362043;28;20276;-77
2023/04/07 16:36:29;;;;;;;6.83;1.80;;;;;11.30;101462.00;;;;10342878;28;20206;-78
2023/04/07 16:41:31;;;;;;;4.47;1.77;;;;;11.00;101469.00;;;;10368274;28;20207;-77
2023/04/07 16:46:33;;;;;;;3.57;1.20;;;;;10.90;101480.00;;;;10357287;28;20298;-78
2023/04/07 16:51:35;;;;;;;5.77;1.70;;;;;10.80;101476.00;;;;10397978;28;20222;-77
2023/04/07 16:56:37;;;;;;;5.80;1.67;;;;;10.70;101478.00;;;;10383882;28;20597;-77
2023/04/07 17:01:41;;;;;;;4.93;1.87;;;;;10.60;101480.00;;;;10392905;28;20265;-77
2023/04/07 17:06:43;;;;;;;4.03;1.80;;;;;10.50;101491.00;;;;10382909;28;20218;-78
2023/04/07 17:11:45;;;;;;;3.23;1.77;;;;;10.40;101482.00;;;;10363827;28;20254;-77
2023/04/07 17:16:47;;;;;;;6.20;1.90;;;;;10.20;101497.00;;;;10373582;28;20222;-77
2023/04/07 17:21:49;;;;;;;4.37;1.60;;;;;10.20;101500.00;;;;10381920;28;20270;-77
2023/04/07 17:26:51;;;;;;;4.07;1.83;;;;;10.00;101510.00;;;;10382254;28;20195;-77
2023/04/07 17:31:55;;;;;;;4.43;1.53;;;;;9.70;101517.00;;;;10382635;28;20301;-77
2023/04/07 17:36:58;;;;;;;7.57;1.57;;;;;9.60;101527.00;;;;10368603;28;20195;-77
2023/04/07 17:42:00;;;;;;;5.07;2.40;;;;;9.50;101539.00;;;;10401134;28;20195;-77
2023/04/07 17:47:02;;;;;;;4.53;1.67;;;;;9.40;101540.00;;;;10401411;28;20239;-77
2023/04/07 17:52:05;;;;;;;3.27;1.60;;;;;9.30;101550.00;;;;10381824;28;20342;-77
2023/04/07 17:57:07;;;;;;;4.57;2.07;;;;;9.20;101563.00;;;;10364791;28;20198;-79
2023/04/07 18:02:09;;;;;;;6.57;2.37;;;;;9.10;101563.00;;;;10380588;28;20600;-77
2023/04/07 18:07:12;;;;;;;6.50;2.30;;;;;9.00;101569.00;;;;10365204;28;20191;-77
2023/04/07 18:12:14;;;;;;;5.13;2.47;;;;;9.00;101559.00;;;;10379470;28;20721;-77
2023/04/07 18:17:16;;;;;;;8.33;2.73;;;;;8.90;101567.00;;;;10382420;28;20935;-77
2023/04/07 18:22:18;;;;;;;6.67;2.37;;;;;8.90;101566.00;;;;10400550;28;20706;-77
2023/04/07 18:27:23;;;;;;;6.53;2.33;;;;;8.80;101578.00;;;;10386431;28;20202;-76
2023/04/07 18:32:25;;;;;;;8.77;2.80;;;;;8.80;101576.00;;;;10378218;28;20300;-76
2023/04/07 18:37:30;;;;;;;10.47;2.30;;;;;8.80;101588.00;;;;10395640;28;20191;-76
2023/04/07 18:42:32;;;;;;;9.03;2.67;;;;;8.80;101595.00;;;;10383705;28;20249;-77
2023/04/07 18:47:34;;;;;;;5.00;2.40;;;;;8.70;101598.00;;;;10346375;28;20214;-76
2023/04/07 18:52:36;;;;;;;9.20;3.33;;;;;8.70;101605.00;;;;10343253;28;20211;-76
2023/04/07 18:57:39;;;;;;;5.33;2.47;;;;;8.70;101605.00;;;;10356010;28;20191;-76
2023/04/07 19:02:43;;;;;;;6.63;2.60;;;;;8.70;101619.00;;;;10356667;28;20210;-77
2023/04/07 19:07:45;;;;;;;5.27;2.40;;;;;8.70;101621.00;;;;10362692;28;20213;-77
2023/04/07 19:12:47;;;;;;;7.37;2.70;;;;;8.60;101625.00;;;;10382204;28;20773;-77
2023/04/07 19:17:49;;;;;;;8.03;3.27;;;;;8.60;101631.00;;;;10345726;28;20305;-76
2023/04/07 19:22:51;;;;;;;5.87;2.80;;;;;8.60;101632.00;;;;10364900;28;20233;-77
2023/04/07 19:27:53;;;;;;;7.73;3.20;;;;;8.60;101630.00;;;;10375097;28;20262;-76
2023/04/07 19:32:55;;;;;;;9.27;3.00;;;;;8.50;101629.00;;;;10366251;28;20302;-76
2023/04/07 19:37:58;;;;;;;4.70;2.67;;;;;8.50;101631.00;;;;10372782;28;20183;-77
2023/04/07 19:43:00;;;;;;;11.07;2.90;;;;;8.50;101636.00;;;;10387260;28;20199;-76
2023/04/07 19:48:02;;;;;;;7.97;3.13;;;;;8.50;101642.00;;;;10400005;28;20261;-76
2023/04/07 19:53:04;;;;;;;7.93;4.13;;;;;8.40;101635.00;;;;10393160;28;20222;-77
2023/04/07 19:58:06;;;;;;;12.20;4.47;;;;;8.50;101646.00;;;;10386969;28;20273;-76
2023/04/07 20:03:08;;;;;;;6.70;3.50;;;;;8.50;101644.00;;;;10353420;28;20305;-77
2023/04/07 20:08:10;;;;;;;5.93;2.77;;;;;8.40;101661.00;;;;10366018;28;20344;-77
2023/04/07 20:13:12;;;;;;;7.13;3.20;;;;;8.40;101651.00;;;;10403610;28;20288;-77
2023/04/07 20:18:17;;;;;;;12.10;3.23;;;;;8.40;101653.00;;;;10391187;28;20308;-77
2023/04/07 20:23:20;;;;;;;13.57;3.17;;;;;8.40;101664.00;;;;10368711;28;20214;-77
2023/04/07 20:28:23;;;;;;;11.10;3.33;;;;;8.40;101658.00;;;;10384889;28;20225;-77
2023/04/07 20:33:25;;;;;;;11.83;3.10;;;;;8.40;101667.00;;;;10370365;28;21062;-75
2023/04/07 20:38:27;;;;;;;11.27;3.30;;;;;8.30;101673.00;;;;10353717;28;20187;-77
2023/04/07 20:43:30;;;;;;;12.00;4.40;;;;;8.30;101670.00;;;;10376342;28;20573;-77
2023/04/07 20:48:32;;;;;;;18.50;4.10;;;;;8.30;101673.00;;;;10338587;28;20203;-78
2023/04/07 20:53:35;;;;;;;12.53;3.97;;;;;8.30;101677.00;;;;10352158;28;20296;-75
2023/04/07 20:58:37;;;;;;;9.43;4.37;;;;;8.30;101668.00;;;;10392410;28;20199;-77
2023/04/07 21:03:39;;;;;;;10.53;4.37;;;;;8.30;101680.00;;;;10387265;28;20673;-77
2023/04/07 21:08:41;;;;;;;17.50;4.57;;;;;8.30;101682.00;;;;10369364;28;20203;-78
2023/04/07 21:13:43;;;;;;;12.23;4.17;;;;;8.30;101681.00;;;;10391988;28;20701;-78
2023/04/07 21:18:45;;;;;;;10.10;4.83;;;;;8.30;101681.00;;;;10357337;28;20237;-77
2023/04/07 21:23:48;;;;;;;15.07;5.00;;;;;8.20;101684.00;;;;10369963;28;20278;-76
2023/04/07 21:28:50;;;;;;;14.33;5.03;;;;;8.20;101685.00;;;;10379385;28;20210;-76
2023/04/07 21:33:52;;;;;;;14.10;4.87;;;;;8.20;101687.00;;;;10365163;28;20595;-76
2023/04/07 21:38:54;;;;;;;14.60;5.43;;;;;8.20;101676.00;;;;10365889;28;20212;-76
2023/04/07 21:43:56;;;;;;;14.33;6.00;;;;;8.20;101690.00;;;;10348064;28;20924;-76
2023/04/07 21:48:58;;;;;;;13.30;5.43;;;;;8.20;101686.00;;;;10396968;28;20221;-75
2023/04/07 21:54:00;;;;;;;11.17;6.10;;;;;8.20;101692.00;;;;10355631;28;20245;-76
2023/04/07 21:59:02;;;;;;;14.63;5.87;;;;;8.10;101685.00;;;;10366841;28;21838;-76
2023/04/07 22:04:04;;;;;;;17.00;5.80;;;;;8.20;101689.00;;;;10344258;28;20195;-76
2023/04/07 22:09:08;;;;;;;15.20;6.47;;;;;8.10;101687.00;;;;10382300;28;20766;-75
2023/04/07 22:14:10;;;;;;;15.03;6.40;;;;;8.10;101690.00;;;;10376145;28;20598;-76
2023/04/07 22:19:12;;;;;;;21.73;8.00;;;;;8.10;101684.00;;;;10382269;28;20210;-76
2023/04/07 22:24:14;;;;;;;12.80;6.30;;;;;8.10;101699.00;;;;10366359;28;20883;-75
2023/04/07 22:29:16;;;;;;;15.10;6.83;;;;;8.10;101690.00;;;;10356955;28;20294;-75
2023/04/07 22:34:18;;;;;;;21.97;6.63;;;;;8.10;101690.00;;;;10368035;28;20211;-75
2023/04/07 22:39:22;;;;;;;13.50;6.53;;;;;8.10;101693.00;;;;10349351;28;20210;-75
2023/04/07 22:44:24;;;;;;;19.23;6.13;;;;;8.10;101695.00;;;;10375681;28;20252;-75
2023/04/07 22:49:27;;;;;;;12.37;7.00;;;;;8.10;101699.00;;;;10360114;28;20298;-75
2023/04/07 22:54:28;;;;;;;18.67;7.60;;;;;8.10;101695.00;;;;10365104;28;20280;-77
2023/04/07 22:59:30;;;;;;;16.47;7.07;;;;;8.00;101691.00;;;;10367546;28;20629;-77
2023/04/07 23:04:32;;;;;;;19.07;7.20;;;;;8.00;101689.00;;;;10400152;28;20225;-77
2023/04/07 23:09:35;;;;;;;20.30;8.10;;;;;8.00;101697.00;;;;10367070;28;20205;-77
2023/04/07 23:14:37;;;;;;;17.73;8.33;;;;;8.00;101695.00;;;;10383278;28;20229;-77
2023/04/07 23:19:39;;;;;;;18.67;8.03;;;;;8.00;101704.00;;;;10387505;28;20222;-77
2023/04/07 23:24:41;;;;;;;14.70;7.57;;;;;8.00;101701.00;;;;10350428;28;20234;-77
2023/04/07 23:29:43;;;;;;;19.77;7.17;;;;;8.00;101709.00;;;;10381677;28;20558;-77
2023/04/07 23:34:45;;;;;;;20.13;7.77;;;;;8.00;101713.00;;;;10381122;28;20305;-77
2023/04/07 23:39:47;;;;;;;19.83;7.37;;;;;8.00;101706.00;;;;10348662;28;20195;-77
2023/04/07 23:44:49;;;;;;;13.87;7.37;;;;;8.00;101713.00;;;;10357211;28;20211;-77
2023/04/07 23:49:51;;;;;;;19.50;8.10;;;;;8.00;101709.00;;;;10349863;28;20207;-77
2023/04/07 23:54:53;;;;;;;19.33;8.00;;;;;8.00;101715.00;;;;10364643;28;20977;-76
2023/04/07 23:59:55;;;;;;;24.57;9.23;;;;;8.00;101713.00;;;;10365172;28;20269;-77
